createdAt,value
2022-11-21T00:01:17.441Z,2.23
2022-11-21T00:03:45.219Z,2.20
2022-11-21T00:06:12.966Z,2.14
2022-11-21T00:08:40.683Z,2.12
2022-11-21T00:11:08.381Z,2.10
2022-11-21T00:13:36.170Z,2.08
2022-11-21T00:16:05.201Z,2.08
2022-11-21T00:18:35.809Z,2.04
2022-11-21T00:21:07.591Z,1.96
2022-11-21T00:23:35.325Z,1.96
2022-11-21T00:26:05.418Z,1.95
2022-11-21T00:28:33.339Z,1.98
2022-11-21T00:31:01.046Z,2.06
2022-11-21T00:33:28.794Z,2.09
2022-11-21T00:35:57.864Z,2.09
2022-11-21T00:38:25.542Z,2.19
2022-11-21T00:40:53.209Z,2.27
2022-11-21T00:43:20.915Z,2.33
2022-11-21T00:45:48.599Z,2.38
2022-11-21T00:48:16.291Z,2.40
2022-11-21T00:50:44.038Z,2.33
2022-11-21T00:53:13.095Z,2.24
2022-11-21T00:55:40.811Z,2.09
2022-11-21T00:58:08.590Z,2.11
2022-11-21T01:00:36.415Z,2.06
2022-11-21T01:03:04.176Z,1.99
2022-11-21T01:05:33.136Z,1.99
2022-11-21T01:08:00.886Z,1.95
2022-11-21T01:10:29.905Z,1.95
2022-11-21T01:12:57.995Z,1.95
2022-11-21T01:15:25.686Z,1.97
2022-11-21T01:17:53.421Z,1.99
2022-11-21T01:20:21.128Z,2.08
2022-11-21T01:22:48.913Z,2.13
2022-11-21T01:25:16.873Z,2.18
2022-11-21T01:27:45.939Z,2.20
2022-11-21T01:30:14.710Z,2.21
2022-11-21T01:32:42.361Z,2.24
2022-11-21T01:35:10.494Z,2.26
2022-11-21T01:37:38.159Z,2.22
2022-11-21T01:40:06.609Z,2.20
2022-11-21T01:42:52.980Z,2.15
2022-11-21T01:45:58.025Z,2.11
2022-11-21T01:48:30.487Z,2.05
2022-11-21T01:51:02.143Z,2.01
2022-11-21T01:53:30.261Z,1.97
2022-11-21T01:55:58.653Z,1.94
2022-11-21T01:58:30.052Z,1.92
2022-11-21T02:00:57.988Z,1.90
2022-11-21T02:03:30.006Z,1.91
2022-11-21T02:05:58.256Z,1.93
2022-11-21T02:08:27.712Z,1.94
2022-11-21T02:11:04.943Z,1.96
2022-11-21T02:13:33.976Z,1.97
2022-11-21T02:16:02.039Z,1.95
2022-11-21T02:18:29.774Z,1.91
2022-11-21T02:21:04.211Z,1.87
2022-11-21T02:23:38.769Z,1.85
2022-11-21T02:26:07.894Z,1.80
2022-11-21T02:28:35.739Z,1.78
2022-11-21T02:31:04.535Z,1.75
2022-11-21T02:33:32.257Z,1.74
2022-11-21T02:36:01.427Z,1.72
2022-11-21T02:38:33.217Z,1.71
2022-11-21T02:41:07.932Z,1.69
2022-11-21T02:43:44.280Z,1.66
2022-11-21T02:46:12.044Z,1.65
2022-11-21T02:48:40.058Z,1.62
2022-11-21T02:51:08.510Z,1.62
2022-11-21T02:53:36.431Z,1.63
2022-11-21T02:56:04.418Z,1.61
2022-11-21T02:58:32.488Z,1.58
2022-11-21T03:01:03.892Z,1.53
2022-11-21T03:03:31.620Z,1.45
2022-11-21T03:05:59.402Z,1.45
2022-11-21T03:08:27.162Z,1.44
2022-11-21T03:10:54.837Z,1.43
2022-11-21T03:13:22.780Z,1.38
2022-11-21T03:15:50.493Z,1.36
2022-11-21T03:18:19.466Z,1.33
2022-11-21T03:20:47.175Z,1.31
2022-11-21T03:23:14.892Z,1.35
2022-11-21T03:25:42.660Z,1.36
2022-11-21T03:28:10.280Z,1.39
2022-11-21T03:30:38.052Z,1.41
2022-11-21T03:33:05.709Z,1.40
2022-11-21T03:35:34.944Z,1.35
2022-11-21T03:38:02.702Z,1.35
2022-11-21T03:40:30.546Z,1.32
2022-11-21T03:42:58.241Z,1.29
2022-11-21T03:45:25.946Z,1.28
2022-11-21T03:47:53.635Z,1.27
2022-11-21T03:50:21.589Z,1.25
2022-11-21T03:52:51.384Z,1.27
2022-11-21T03:55:19.060Z,1.29
2022-11-21T03:57:46.847Z,1.29
2022-11-21T04:00:15.926Z,1.31
2022-11-21T04:02:45.021Z,1.31
2022-11-21T04:05:14.019Z,1.33
2022-11-21T04:07:41.759Z,1.34
2022-11-21T04:10:11.375Z,1.33
2022-11-21T04:12:39.168Z,1.32
2022-11-21T04:15:13.173Z,1.31
2022-11-21T04:17:41.442Z,1.33
2022-11-21T04:20:12.814Z,1.35
2022-11-21T04:22:40.599Z,1.31
2022-11-21T04:25:09.028Z,1.33
2022-11-21T04:27:38.133Z,1.33
2022-11-21T04:30:07.110Z,1.34
2022-11-21T04:32:34.857Z,1.34
2022-11-21T04:35:02.596Z,1.30
2022-11-21T04:37:30.314Z,1.32
2022-11-21T04:39:57.997Z,1.29
2022-11-21T04:42:25.848Z,1.28
2022-11-21T04:44:54.847Z,1.31
2022-11-21T04:47:22.546Z,1.29
2022-11-21T04:49:50.208Z,1.25
2022-11-21T04:52:18.021Z,1.27
2022-11-21T04:54:45.762Z,1.28
2022-11-21T04:57:13.489Z,1.29
2022-11-21T04:59:41.189Z,1.27
2022-11-21T05:02:11.385Z,1.12
2022-11-21T05:04:40.125Z,1.07
2022-11-21T05:07:07.869Z,1.11
2022-11-21T05:09:35.624Z,1.12
2022-11-21T05:12:21.188Z,1.07
2022-11-21T05:14:48.904Z,1.04
2022-11-21T05:17:17.994Z,1.07
2022-11-21T05:19:45.644Z,1.11
2022-11-21T05:22:13.394Z,1.09
2022-11-21T05:24:41.037Z,0.88
2022-11-21T05:27:08.782Z,0.92
2022-11-21T05:29:36.751Z,0.96
2022-11-21T05:32:04.581Z,0.91
2022-11-21T05:34:33.656Z,0.91
2022-11-21T05:37:01.418Z,0.89
2022-11-21T05:39:29.236Z,0.86
2022-11-21T05:42:01.470Z,0.85
2022-11-21T05:44:30.227Z,0.86
2022-11-21T05:46:58.225Z,0.86
2022-11-21T05:49:25.916Z,0.84
2022-11-21T05:51:55.026Z,0.82
2022-11-21T05:54:22.632Z,0.77
2022-11-21T05:56:50.298Z,0.77
2022-11-21T05:59:17.993Z,0.76
2022-11-21T06:02:03.522Z,0.79
2022-11-21T06:04:31.573Z,0.75
2022-11-21T06:07:02.849Z,0.70
2022-11-21T06:09:31.716Z,0.77
2022-11-21T06:11:59.459Z,0.80
2022-11-21T06:14:32.299Z,0.80
2022-11-21T06:17:00.058Z,0.73
2022-11-21T06:19:27.754Z,0.69
2022-11-21T06:21:55.516Z,0.70
2022-11-21T06:24:25.092Z,0.74
2022-11-21T06:26:53.166Z,0.74
2022-11-21T06:29:22.149Z,0.76
2022-11-21T06:31:50.699Z,0.80
2022-11-21T06:34:18.564Z,0.82
2022-11-21T06:36:46.536Z,0.79
2022-11-21T06:39:14.229Z,0.77
2022-11-21T06:41:43.293Z,0.78
2022-11-21T06:44:11.001Z,0.76
2022-11-21T06:46:38.841Z,0.76
2022-11-21T06:49:06.778Z,0.76
2022-11-21T06:51:34.527Z,0.75
2022-11-21T06:54:02.434Z,0.77
2022-11-21T06:56:32.560Z,0.72
2022-11-21T06:59:03.749Z,0.43
2022-11-21T07:01:31.448Z,0.18
2022-11-21T07:03:59.177Z,0.19
2022-11-21T07:06:27.202Z,0.30
2022-11-21T07:11:43.362Z,0.32
2022-11-21T07:14:11.692Z,0.25
2022-11-21T07:16:39.448Z,0.35
2022-11-21T07:19:07.162Z,0.41
2022-11-21T07:21:34.916Z,0.33
2022-11-21T07:24:02.774Z,0.24
2022-11-21T07:26:30.448Z,0.15
2022-11-21T07:28:59.461Z,0.20
2022-11-21T07:31:28.472Z,0.27
2022-11-21T07:33:56.169Z,0.33
2022-11-21T07:36:23.827Z,0.19
2022-11-21T07:38:51.518Z,0.24
2022-11-21T07:41:19.218Z,0.32
2022-11-21T07:43:49.192Z,0.41
2022-11-21T07:46:16.870Z,0.61
2022-11-21T07:48:46.233Z,0.76
2022-11-21T07:51:13.919Z,0.92
2022-11-21T07:53:42.016Z,1.03
2022-11-21T07:56:10.324Z,1.08
2022-11-21T07:58:38.030Z,1.06
2022-11-21T08:01:06.672Z,0.96
2022-11-21T08:03:34.813Z,0.92
2022-11-21T08:06:04.795Z,0.76
2022-11-21T08:08:32.758Z,0.73
2022-11-21T08:11:05.720Z,0.73
2022-11-21T08:13:33.551Z,0.65
2022-11-21T08:16:04.294Z,0.67
2022-11-21T08:18:32.714Z,0.70
2022-11-21T08:21:02.349Z,0.60
2022-11-21T08:23:32.420Z,0.67
2022-11-21T08:26:00.244Z,0.75
2022-11-21T08:28:28.085Z,0.86
2022-11-21T08:30:55.728Z,0.86
2022-11-21T08:33:23.398Z,0.82
2022-11-21T08:35:51.041Z,0.74
2022-11-21T08:38:18.763Z,0.76
2022-11-21T08:41:07.788Z,0.80
2022-11-21T08:43:35.453Z,0.82
2022-11-21T08:46:03.197Z,0.95
2022-11-21T08:48:31.007Z,1.03
2022-11-21T08:50:58.749Z,1.05
2022-11-21T08:53:26.835Z,1.00
2022-11-21T08:56:00.105Z,0.93
2022-11-21T08:58:31.053Z,1.03
2022-11-21T09:01:00.088Z,1.11
2022-11-21T09:03:31.121Z,1.14
2022-11-21T09:05:59.776Z,1.23
2022-11-21T09:08:28.018Z,1.33
2022-11-21T09:10:57.016Z,1.28
2022-11-21T09:13:24.696Z,1.29
2022-11-21T09:16:10.252Z,1.36
2022-11-21T09:18:38.936Z,1.44
2022-11-21T09:21:06.609Z,1.47
2022-11-21T09:23:34.307Z,1.58
2022-11-21T09:26:03.304Z,1.55
2022-11-21T09:28:30.977Z,1.50
2022-11-21T09:30:59.159Z,1.62
2022-11-21T09:33:26.934Z,1.67
2022-11-21T09:35:54.669Z,1.64
2022-11-21T09:38:24.203Z,1.75
2022-11-21T09:40:52.295Z,1.74
2022-11-21T09:43:35.933Z,1.73
2022-11-21T09:46:10.908Z,1.85
2022-11-21T09:48:48.739Z,1.89
2022-11-21T09:51:19.110Z,1.95
2022-11-21T09:53:56.277Z,1.95
2022-11-21T09:56:24.876Z,2.06
2022-11-21T09:59:08.379Z,2.09
2022-11-21T10:01:37.467Z,2.09
2022-11-21T10:04:05.772Z,2.06
2022-11-21T10:06:40.104Z,2.10
2022-11-21T10:09:12.847Z,2.03
2022-11-21T10:12:11.198Z,2.04
2022-11-21T10:14:53.336Z,1.87
2022-11-21T10:17:27.971Z,1.90
2022-11-21T10:20:23.306Z,2.03
2022-11-21T10:23:05.389Z,2.14
2022-11-21T10:25:38.452Z,2.23
2022-11-21T10:28:12.017Z,2.22
2022-11-21T10:30:45.141Z,2.10
2022-11-21T10:33:17.488Z,2.14
2022-11-21T10:35:48.289Z,2.14
2022-11-21T10:38:22.262Z,2.14
2022-11-21T10:40:53.542Z,2.14
2022-11-21T10:43:51.071Z,2.18
2022-11-21T10:46:20.186Z,2.21
2022-11-21T10:48:56.319Z,2.17
2022-11-21T10:51:43.467Z,2.10
2022-11-21T10:54:30.492Z,1.95
2022-11-21T10:57:03.073Z,2.04
2022-11-21T10:59:31.726Z,2.05
2022-11-21T11:02:02.787Z,2.02
2022-11-21T11:04:36.901Z,1.93
2022-11-21T11:07:25.706Z,1.81
2022-11-21T11:09:54.484Z,1.89
2022-11-21T11:12:46.910Z,1.81
2022-11-21T11:15:20.199Z,1.91
2022-11-21T11:17:54.177Z,1.87
2022-11-21T11:20:35.316Z,1.89
2022-11-21T11:23:27.359Z,1.86
2022-11-21T11:25:56.511Z,1.78
2022-11-21T11:28:25.314Z,1.77
2022-11-21T11:30:55.871Z,1.62
2022-11-21T11:33:37.580Z,1.72
2022-11-21T11:36:15.144Z,1.92
2022-11-21T11:38:47.212Z,2.06
2022-11-21T11:41:53.879Z,2.15
2022-11-21T11:44:47.651Z,2.14
2022-11-21T11:47:32.246Z,2.00
2022-11-21T11:50:11.907Z,1.98
2022-11-21T11:52:47.725Z,2.07
2022-11-21T11:55:21.089Z,2.13
2022-11-21T11:57:51.636Z,2.29
2022-11-21T12:00:29.549Z,2.37
2022-11-21T12:03:02.372Z,2.32
2022-11-21T12:05:32.169Z,2.42
2022-11-21T12:11:30.951Z,2.69
2022-11-21T12:14:10.768Z,2.76
2022-11-21T12:16:41.165Z,2.90
2022-11-21T12:19:16.230Z,3.00
2022-11-21T12:21:46.073Z,3.12
2022-11-21T12:24:13.879Z,3.23
2022-11-21T12:26:55.056Z,3.37
2022-11-21T12:29:38.078Z,3.47
2022-11-21T12:32:29.155Z,3.41
2022-11-21T12:35:11.257Z,3.48
2022-11-21T12:37:49.085Z,3.43
2022-11-21T12:40:37.808Z,3.37
2022-11-21T12:43:19.491Z,3.49
2022-11-21T12:45:52.034Z,3.22
2022-11-21T12:48:43.794Z,3.12
2022-11-21T12:51:44.362Z,3.01
2022-11-21T12:54:34.725Z,2.91
2022-11-21T12:57:10.338Z,2.88
2022-11-21T12:59:53.139Z,2.82
2022-11-21T13:02:30.912Z,2.77
2022-11-21T13:05:00.883Z,2.74
2022-11-21T13:07:31.245Z,2.64
2022-11-21T13:10:03.496Z,2.53
2022-11-21T13:12:41.854Z,2.52
2022-11-21T13:15:25.480Z,2.58
2022-11-21T13:17:56.979Z,2.57
2022-11-21T13:20:31.418Z,2.48
2022-11-21T13:23:00.971Z,2.49
2022-11-21T13:25:40.874Z,2.35
2022-11-21T13:28:37.277Z,2.45
2022-11-21T13:31:31.038Z,2.47
2022-11-21T13:33:59.388Z,2.47
2022-11-21T13:36:40.121Z,2.42
2022-11-21T13:39:38.294Z,2.29
2022-11-21T13:42:26.982Z,2.32
2022-11-21T13:44:54.877Z,2.28
2022-11-21T13:48:10.205Z,2.36
2022-11-21T13:51:05.359Z,2.33
2022-11-21T13:53:57.540Z,2.26
2022-11-21T13:56:36.090Z,2.13
2022-11-21T13:59:23.507Z,2.05
2022-11-21T14:02:08.075Z,2.05
2022-11-21T14:05:12.455Z,2.12
2022-11-21T14:07:42.273Z,2.14
2022-11-21T14:10:31.132Z,2.08
2022-11-21T14:12:59.787Z,2.03
2022-11-21T14:15:36.080Z,1.90
2022-11-21T14:18:04.595Z,1.91
2022-11-21T14:20:49.971Z,1.95
2022-11-21T14:23:19.474Z,1.85
2022-11-21T14:25:50.402Z,1.99
2022-11-21T14:28:24.301Z,2.03
2022-11-21T14:30:59.212Z,2.06
2022-11-21T14:33:34.400Z,2.07
2022-11-21T14:36:08.196Z,2.07
2022-11-21T14:38:42.694Z,2.10
2022-11-21T14:41:28.684Z,2.10
2022-11-21T14:44:19.019Z,2.14
2022-11-21T14:46:48.947Z,2.09
2022-11-21T14:49:20.653Z,2.03
2022-11-21T14:51:50.199Z,2.02
2022-11-21T14:54:20.433Z,1.95
2022-11-21T14:56:49.598Z,1.91
2022-11-21T14:59:25.659Z,1.80
2022-11-21T15:02:00.750Z,1.77
2022-11-21T15:04:31.764Z,1.75
2022-11-21T15:07:00.198Z,1.72
2022-11-21T15:10:26.021Z,1.74
2022-11-21T15:12:24.827Z,1.66
2022-11-21T15:14:58.814Z,1.72
2022-11-21T15:17:28.511Z,1.64
2022-11-21T15:20:18.582Z,1.61
2022-11-21T15:22:48.140Z,1.59
2022-11-21T15:25:19.061Z,1.68
2022-11-21T15:27:47.812Z,1.62
2022-11-21T15:30:26.890Z,1.55
2022-11-21T15:33:17.546Z,1.56
2022-11-21T15:35:51.348Z,1.56
2022-11-21T15:38:22.929Z,1.50
2022-11-21T15:40:59.255Z,1.50
2022-11-21T15:43:39.017Z,1.53
2022-11-21T15:46:15.178Z,1.58
2022-11-21T15:48:47.123Z,1.60
2022-11-21T15:51:15.397Z,1.56
2022-11-21T15:53:43.277Z,1.57
2022-11-21T15:56:21.258Z,1.46
2022-11-21T15:58:51.463Z,1.39
2022-11-21T16:01:20.857Z,1.43
2022-11-21T16:03:52.848Z,1.52
2022-11-21T16:06:21.608Z,1.52
2022-11-21T16:08:49.743Z,1.55
2022-11-21T16:11:19.913Z,1.53
2022-11-21T16:13:50.141Z,1.45
2022-11-21T16:16:18.237Z,1.52
2022-11-21T16:18:47.355Z,1.55
2022-11-21T16:21:16.906Z,1.56
2022-11-21T16:23:45.123Z,1.53
2022-11-21T16:26:13.349Z,1.40
2022-11-21T16:28:41.653Z,1.40
2022-11-21T16:31:19.710Z,1.39
2022-11-21T16:33:47.636Z,1.42
2022-11-21T16:36:22.793Z,1.40
2022-11-21T16:38:51.361Z,1.36
2022-11-21T16:41:20.246Z,1.40
2022-11-21T16:43:49.820Z,1.38
2022-11-21T16:46:18.743Z,1.36
2022-11-21T16:48:46.638Z,1.40
2022-11-21T16:51:16.232Z,1.42
2022-11-21T16:53:46.155Z,1.46
2022-11-21T16:56:14.119Z,1.49
2022-11-21T16:58:42.219Z,1.40
2022-11-21T17:01:12.240Z,1.32
2022-11-21T17:03:40.870Z,1.42
2022-11-21T17:06:10.848Z,1.47
2022-11-21T17:08:39.367Z,1.52
2022-11-21T17:11:16.657Z,1.49
2022-11-21T17:13:44.673Z,1.51
2022-11-21T17:16:13.617Z,1.50
2022-11-21T17:18:41.603Z,1.52
2022-11-21T17:21:11.287Z,1.54
2022-11-21T17:23:41.621Z,1.48
2022-11-21T17:26:11.141Z,1.44
2022-11-21T17:28:45.267Z,1.46
2022-11-21T17:31:15.319Z,1.44
2022-11-21T17:33:43.788Z,1.47
2022-11-21T17:36:13.294Z,1.37
2022-11-21T17:38:42.366Z,1.28
2022-11-21T17:41:12.755Z,1.26
2022-11-21T17:43:41.939Z,1.29
2022-11-21T17:46:12.909Z,1.11
2022-11-21T17:48:40.996Z,1.14
2022-11-21T17:51:12.273Z,1.12
2022-11-21T17:53:42.227Z,1.14
2022-11-21T17:56:12.441Z,1.15
2022-11-21T17:58:40.131Z,1.12
2022-11-21T18:01:13.612Z,1.15
2022-11-21T18:03:42.309Z,1.11
2022-11-21T18:06:11.758Z,1.06
2022-11-21T18:08:41.659Z,0.94
2022-11-21T18:11:10.980Z,1.04
2022-11-21T18:13:40.014Z,0.99
2022-11-21T18:16:11.527Z,0.81
2022-11-21T18:18:40.577Z,0.95
2022-11-21T18:21:10.929Z,0.95
2022-11-21T18:23:39.829Z,0.87
2022-11-21T18:26:12.259Z,0.90
2022-11-21T18:28:40.247Z,0.95
2022-11-21T18:31:11.048Z,0.92
2022-11-21T18:33:39.949Z,0.90
2022-11-21T18:36:09.263Z,0.88
2022-11-21T18:38:49.312Z,0.88
2022-11-21T18:41:20.588Z,0.92
2022-11-21T18:43:52.309Z,0.88
2022-11-21T18:46:22.690Z,0.95
2022-11-21T18:49:07.987Z,0.93
2022-11-21T18:51:37.125Z,0.90
2022-11-21T18:54:08.091Z,0.90
2022-11-21T18:56:37.424Z,0.94
2022-11-21T18:59:06.359Z,1.00
2022-11-21T19:01:37.473Z,0.95
2022-11-21T19:04:06.175Z,0.96
2022-11-21T19:06:34.215Z,0.91
2022-11-21T19:09:02.188Z,0.96
2022-11-21T19:11:30.721Z,0.94
2022-11-21T19:14:00.376Z,1.07
2022-11-21T19:16:30.842Z,1.11
2022-11-21T19:19:32.577Z,1.14
2022-11-21T19:21:47.620Z,1.16
2022-11-21T19:24:15.975Z,1.12
2022-11-21T19:26:43.600Z,1.10
2022-11-21T19:29:12.029Z,1.11
2022-11-21T19:31:45.146Z,1.16
2022-11-21T19:34:15.722Z,1.10
2022-11-21T19:36:43.429Z,1.10
2022-11-21T19:39:11.642Z,1.17
2022-11-21T19:41:39.295Z,1.17
2022-11-21T19:44:07.152Z,1.06
2022-11-21T19:46:38.705Z,1.13
2022-11-21T19:49:07.534Z,1.25
2022-11-21T19:51:38.388Z,1.20
2022-11-21T19:54:07.919Z,1.09
2022-11-21T19:56:36.215Z,1.14
2022-11-21T19:59:04.069Z,1.20
2022-11-21T20:01:33.419Z,1.26
2022-11-21T20:04:02.918Z,1.27
2022-11-21T20:06:32.673Z,1.33
2022-11-21T20:09:03.868Z,1.39
2022-11-21T20:11:32.599Z,1.39
2022-11-21T20:14:00.902Z,1.44
2022-11-21T20:16:30.381Z,1.53
2022-11-21T20:18:59.706Z,1.50
2022-11-21T20:21:27.736Z,1.39
2022-11-21T20:23:55.972Z,1.43
2022-11-21T20:26:25.890Z,1.48
2022-11-21T20:28:54.116Z,1.49
2022-11-21T20:31:24.708Z,1.41
2022-11-21T20:33:53.806Z,1.38
2022-11-21T20:36:24.267Z,1.42
2022-11-21T20:38:53.846Z,1.50
2022-11-21T20:41:22.828Z,1.31
2022-11-21T20:46:42.442Z,1.20
2022-11-21T20:49:10.417Z,1.27
2022-11-21T20:54:26.199Z,1.33
2022-11-21T20:56:53.955Z,1.34
2022-11-21T20:59:23.285Z,1.23
2022-11-21T21:01:51.011Z,1.30
2022-11-21T21:04:18.830Z,1.27
2022-11-21T21:06:46.565Z,1.38
2022-11-21T21:09:14.208Z,1.32
2022-11-21T21:11:57.187Z,1.32
2022-11-21T21:14:26.172Z,1.33
2022-11-21T21:16:54.067Z,1.31
2022-11-21T21:19:22.469Z,1.27
2022-11-21T21:21:50.440Z,1.31
2022-11-21T21:24:18.297Z,1.36
2022-11-21T21:26:48.394Z,1.32
2022-11-21T21:29:18.574Z,1.30
2022-11-21T21:31:51.647Z,1.35
2022-11-21T21:34:20.861Z,1.27
2022-11-21T21:36:49.140Z,1.29
2022-11-21T21:39:16.922Z,1.35
2022-11-21T21:41:46.448Z,1.37
2022-11-21T21:44:14.591Z,1.40
2022-11-21T21:46:42.442Z,1.36
2022-11-21T21:49:11.953Z,1.38
2022-11-21T21:51:40.124Z,1.43
2022-11-21T21:54:16.560Z,1.42
2022-11-21T21:56:45.602Z,1.44
2022-11-21T21:59:14.401Z,1.38
2022-11-21T22:01:43.031Z,1.36
2022-11-21T22:04:12.752Z,1.33
2022-11-21T22:06:40.463Z,1.33
2022-11-21T22:09:08.179Z,1.41
2022-11-21T22:11:38.233Z,1.35
2022-11-21T22:14:07.355Z,1.34
2022-11-21T22:16:35.026Z,1.43
2022-11-21T22:19:02.842Z,1.35
2022-11-21T22:21:33.281Z,1.37
2022-11-21T22:24:24.950Z,1.30
2022-11-21T22:26:50.036Z,1.39
2022-11-21T22:29:17.944Z,1.32
2022-11-21T22:31:45.651Z,1.34
2022-11-21T22:34:14.004Z,1.27
2022-11-21T22:36:43.308Z,1.27
2022-11-21T22:39:10.987Z,1.25
2022-11-21T22:41:39.118Z,1.49
2022-11-21T22:44:06.778Z,1.55
2022-11-21T22:46:34.427Z,1.40
2022-11-21T22:49:02.052Z,1.31
2022-11-21T22:51:30.415Z,1.37
2022-11-21T22:53:59.469Z,1.31
2022-11-21T22:56:27.412Z,1.15
2022-11-21T22:58:55.949Z,1.26
2022-11-21T23:01:25.159Z,1.27
2022-11-21T23:03:55.377Z,1.24
2022-11-21T23:06:24.639Z,1.25
2022-11-21T23:08:53.223Z,1.10
2022-11-21T23:11:24.411Z,1.28
2022-11-21T23:13:52.762Z,1.27
2022-11-21T23:16:21.071Z,1.27
2022-11-21T23:18:49.444Z,1.31
2022-11-21T23:21:17.065Z,1.35
2022-11-21T23:23:44.823Z,1.38
2022-11-21T23:26:12.755Z,1.35
2022-11-21T23:28:41.787Z,1.38
2022-11-21T23:31:10.658Z,1.29
2022-11-21T23:33:38.357Z,1.38
2022-11-21T23:36:06.236Z,1.42
2022-11-21T23:38:33.939Z,1.41
2022-11-21T23:41:01.598Z,1.30
2022-11-21T23:43:29.272Z,1.42
2022-11-21T23:45:58.300Z,1.30
2022-11-21T23:48:26.071Z,1.31
2022-11-21T23:50:53.745Z,1.27
2022-11-21T23:53:21.792Z,1.31
2022-11-21T23:55:49.654Z,1.31
2022-11-21T23:58:17.329Z,1.22
